sensor_id;sensor_type;location;lat;lon;timestamp;pressure;altitude;pressure_sealevel;temperature;humidity
16481;BME280;44634;54.110;12.138;2022-08-19T00:01:45;100708.41;;;24.99;100.00
16481;BME280;44634;54.110;12.138;2022-08-19T00:04:22;100712.13;;;24.75;100.00
16481;BME280;44634;54.110;12.138;2022-08-19T00:06:51;100685.44;;;24.78;100.00
16481;BME280;44634;54.110;12.138;2022-08-19T00:09:21;100697.47;;;24.52;100.00
16481;BME280;44634;54.110;12.138;2022-08-19T00:11:50;100698.59;;;24.75;100.00
16481;BME280;44634;54.110;12.138;2022-08-19T00:14:19;100710.41;;;24.92;100.00
16481;BME280;44634;54.110;12.138;2022-08-19T00:16:49;100673.50;;;25.09;100.00
16481;BME280;44634;54.110;12.138;2022-08-19T00:19:21;100654.91;;;25.13;100.00
16481;BME280;44634;54.110;12.138;2022-08-19T00:21:49;100644.69;;;25.03;100.00
16481;BME280;44634;54.110;12.138;2022-08-19T00:24:17;100639.50;;;24.90;100.00
16481;BME280;44634;54.110;12.138;2022-08-19T00:26:45;100652.41;;;24.88;100.00
16481;BME280;44634;54.110;12.138;2022-08-19T00:29:15;100664.22;;;24.52;100.00
16481;BME280;44634;54.110;12.138;2022-08-19T00:31:43;100674.50;;;24.85;100.00
16481;BME280;44634;54.110;12.138;2022-08-19T00:34:13;100642.59;;;25.05;100.00
16481;BME280;44634;54.110;12.138;2022-08-19T00:36:42;100649.69;;;24.65;100.00
16481;BME280;44634;54.110;12.138;2022-08-19T00:39:11;100639.06;;;25.05;100.00
16481;BME280;44634;54.110;12.138;2022-08-19T00:41:40;100629.50;;;25.14;100.00
16481;BME280;44634;54.110;12.138;2022-08-19T00:44:10;100618.31;;;24.99;100.00
16481;BME280;44634;54.110;12.138;2022-08-19T00:46:41;100623.13;;;24.85;100.00
16481;BME280;44634;54.110;12.138;2022-08-19T00:49:14;100636.31;;;24.93;100.00
16481;BME280;44634;54.110;12.138;2022-08-19T00:51:44;100673.06;;;24.71;100.00
16481;BME280;44634;54.110;12.138;2022-08-19T00:54:12;100675.81;;;24.82;100.00
16481;BME280;44634;54.110;12.138;2022-08-19T00:56:40;100681.75;;;24.73;100.00
16481;BME280;44634;54.110;12.138;2022-08-19T00:59:09;100689.41;;;24.64;100.00
16481;BME280;44634;54.110;12.138;2022-08-19T01:01:38;100719.72;;;24.66;100.00
16481;BME280;44634;54.110;12.138;2022-08-19T01:04:08;100721.84;;;24.64;100.00
16481;BME280;44634;54.110;12.138;2022-08-19T01:06:38;100746.06;;;24.71;100.00
16481;BME280;44634;54.110;12.138;2022-08-19T01:09:07;100757.94;;;24.70;100.00
16481;BME280;44634;54.110;12.138;2022-08-19T01:11:38;100775.44;;;24.37;100.00
16481;BME280;44634;54.110;12.138;2022-08-19T01:14:08;100740.81;;;24.87;100.00
16481;BME280;44634;54.110;12.138;2022-08-19T01:16:37;100732.03;;;24.92;100.00
16481;BME280;44634;54.110;12.138;2022-08-19T01:19:12;100715.00;;;24.91;100.00
16481;BME280;44634;54.110;12.138;2022-08-19T01:21:49;100755.00;;;24.59;100.00
16481;BME280;44634;54.110;12.138;2022-08-19T01:24:21;100775.28;;;24.50;100.00
16481;BME280;44634;54.110;12.138;2022-08-19T01:26:48;100824.47;;;24.41;100.00
16481;BME280;44634;54.110;12.138;2022-08-19T01:29:16;100856.97;;;24.34;100.00
16481;BME280;44634;54.110;12.138;2022-08-19T01:31:46;100885.66;;;24.35;100.00
16481;BME280;44634;54.110;12.138;2022-08-19T01:34:19;100930.91;;;24.15;100.00
16481;BME280;44634;54.110;12.138;2022-08-19T01:36:47;100968.88;;;24.01;100.00
16481;BME280;44634;54.110;12.138;2022-08-19T01:39:17;101003.94;;;24.08;100.00
16481;BME280;44634;54.110;12.138;2022-08-19T01:41:47;101014.03;;;24.19;100.00
16481;BME280;44634;54.110;12.138;2022-08-19T01:44:15;101012.84;;;24.09;100.00
16481;BME280;44634;54.110;12.138;2022-08-19T01:46:47;101035.38;;;23.96;100.00
16481;BME280;44634;54.110;12.138;2022-08-19T01:49:18;101059.38;;;23.79;100.00
16481;BME280;44634;54.110;12.138;2022-08-19T01:51:47;101083.03;;;23.84;100.00
16481;BME280;44634;54.110;12.138;2022-08-19T01:54:17;101089.16;;;23.66;100.00
16481;BME280;44634;54.110;12.138;2022-08-19T01:56:57;101083.53;;;23.67;100.00
16481;BME280;44634;54.110;12.138;2022-08-19T01:59:26;101086.03;;;23.69;100.00
16481;BME280;44634;54.110;12.138;2022-08-19T02:01:55;101086.25;;;23.54;100.00
16481;BME280;44634;54.110;12.138;2022-08-19T02:04:23;101086.09;;;23.49;100.00
16481;BME280;44634;54.110;12.138;2022-08-19T02:06:51;101076.91;;;23.63;100.00
16481;BME280;44634;54.110;12.138;2022-08-19T02:09:19;101077.09;;;23.68;100.00
16481;BME280;44634;54.110;12.138;2022-08-19T02:11:47;101079.00;;;23.61;100.00
16481;BME280;44634;54.110;12.138;2022-08-19T02:14:16;101083.16;;;23.57;100.00
16481;BME280;44634;54.110;12.138;2022-08-19T02:16:44;101071.81;;;23.35;100.00
16481;BME280;44634;54.110;12.138;2022-08-19T02:19:12;101080.53;;;23.89;100.00
16481;BME280;44634;54.110;12.138;2022-08-19T02:21:40;101085.69;;;23.45;100.00
16481;BME280;44634;54.110;12.138;2022-08-19T02:24:07;101094.59;;;23.59;100.00
16481;BME280;44634;54.110;12.138;2022-08-19T02:26:35;101096.81;;;23.69;100.00
16481;BME280;44634;54.110;12.138;2022-08-19T02:29:03;101101.31;;;23.88;100.00
16481;BME280;44634;54.110;12.138;2022-08-19T02:31:33;101102.09;;;23.44;100.00
16481;BME280;44634;54.110;12.138;2022-08-19T02:34:02;101104.81;;;23.44;100.00
16481;BME280;44634;54.110;12.138;2022-08-19T02:36:30;101106.84;;;23.62;100.00
16481;BME280;44634;54.110;12.138;2022-08-19T02:38:58;101116.00;;;23.48;100.00
16481;BME280;44634;54.110;12.138;2022-08-19T02:41:27;101121.59;;;23.46;100.00
16481;BME280;44634;54.110;12.138;2022-08-19T02:43:57;101117.75;;;23.80;100.00
16481;BME280;44634;54.110;12.138;2022-08-19T02:46:47;101123.66;;;23.57;100.00
16481;BME280;44634;54.110;12.138;2022-08-19T02:49:18;101128.88;;;23.45;100.00
16481;BME280;44634;54.110;12.138;2022-08-19T02:51:46;101117.25;;;23.58;100.00
16481;BME280;44634;54.110;12.138;2022-08-19T02:54:14;101129.94;;;23.25;100.00
16481;BME280;44634;54.110;12.138;2022-08-19T02:56:43;101142.44;;;23.84;100.00
16481;BME280;44634;54.110;12.138;2022-08-19T02:59:11;101143.50;;;24.21;100.00
16481;BME280;44634;54.110;12.138;2022-08-19T03:01:40;101153.50;;;24.14;100.00
16481;BME280;44634;54.110;12.138;2022-08-19T03:04:13;101151.97;;;23.93;100.00
16481;BME280;44634;54.110;12.138;2022-08-19T03:06:44;101143.25;;;23.91;100.00
16481;BME280;44634;54.110;12.138;2022-08-19T03:09:13;101134.88;;;23.61;100.00
16481;BME280;44634;54.110;12.138;2022-08-19T03:11:41;101141.28;;;23.53;100.00
16481;BME280;44634;54.110;12.138;2022-08-19T03:14:10;101119.63;;;23.80;100.00
16481;BME280;44634;54.110;12.138;2022-08-19T03:16:42;101123.25;;;23.47;100.00
16481;BME280;44634;54.110;12.138;2022-08-19T03:19:12;101125.75;;;23.49;100.00
16481;BME280;44634;54.110;12.138;2022-08-19T03:21:40;101126.56;;;23.62;100.00
16481;BME280;44634;54.110;12.138;2022-08-19T03:24:11;101132.56;;;23.58;100.00
16481;BME280;44634;54.110;12.138;2022-08-19T03:26:40;101124.78;;;23.10;100.00
16481;BME280;44634;54.110;12.138;2022-08-19T03:29:09;101097.38;;;23.26;100.00
16481;BME280;44634;54.110;12.138;2022-08-19T03:31:39;101114.34;;;23.47;100.00
16481;BME280;44634;54.110;12.138;2022-08-19T03:34:23;101122.88;;;23.37;100.00
16481;BME280;44634;54.110;12.138;2022-08-19T03:36:53;101114.34;;;23.47;100.00
16481;BME280;44634;54.110;12.138;2022-08-19T03:39:22;101121.53;;;23.72;100.00
16481;BME280;44634;54.110;12.138;2022-08-19T03:41:52;101128.84;;;23.52;100.00
16481;BME280;44634;54.110;12.138;2022-08-19T03:44:43;101108.00;;;22.95;100.00
16481;BME280;44634;54.110;12.138;2022-08-19T03:47:12;101090.97;;;23.14;100.00
16481;BME280;44634;54.110;12.138;2022-08-19T03:49:44;101109.41;;;23.30;100.00
16481;BME280;44634;54.110;12.138;2022-08-19T03:52:12;101116.09;;;23.08;100.00
16481;BME280;44634;54.110;12.138;2022-08-19T03:54:40;101111.25;;;23.36;100.00
16481;BME280;44634;54.110;12.138;2022-08-19T03:57:08;101135.28;;;23.64;100.00
16481;BME280;44634;54.110;12.138;2022-08-19T03:59:38;101152.16;;;23.33;100.00
16481;BME280;44634;54.110;12.138;2022-08-19T04:02:08;101158.47;;;23.79;100.00
16481;BME280;44634;54.110;12.138;2022-08-19T04:04:37;101174.19;;;24.01;100.00
16481;BME280;44634;54.110;12.138;2022-08-19T04:07:08;101175.63;;;24.04;100.00
16481;BME280;44634;54.110;12.138;2022-08-19T04:09:36;101180.50;;;23.69;100.00
16481;BME280;44634;54.110;12.138;2022-08-19T04:12:05;101191.13;;;24.15;100.00
16481;BME280;44634;54.110;12.138;2022-08-19T04:14:34;101200.53;;;24.06;100.00
16481;BME280;44634;54.110;12.138;2022-08-19T04:17:03;101194.81;;;24.27;100.00
16481;BME280;44634;54.110;12.138;2022-08-19T04:19:32;101207.91;;;24.24;100.00
16481;BME280;44634;54.110;12.138;2022-08-19T04:22:00;101207.25;;;23.90;100.00
16481;BME280;44634;54.110;12.138;2022-08-19T04:24:30;101204.38;;;24.30;100.00
16481;BME280;44634;54.110;12.138;2022-08-19T04:26:59;101204.56;;;24.35;100.00
16481;BME280;44634;54.110;12.138;2022-08-19T04:29:29;101196.78;;;24.52;100.00
16481;BME280;44634;54.110;12.138;2022-08-19T04:31:57;101203.03;;;24.08;100.00
16481;BME280;44634;54.110;12.138;2022-08-19T04:34:35;101206.72;;;24.20;100.00
16481;BME280;44634;54.110;12.138;2022-08-19T04:37:23;101218.31;;;24.33;100.00
16481;BME280;44634;54.110;12.138;2022-08-19T04:39:52;101221.00;;;24.27;100.00
16481;BME280;44634;54.110;12.138;2022-08-19T04:42:37;101225.78;;;24.25;100.00
16481;BME280;44634;54.110;12.138;2022-08-19T04:45:11;101216.41;;;24.27;100.00
16481;BME280;44634;54.110;12.138;2022-08-19T04:47:41;101223.97;;;24.19;100.00
16481;BME280;44634;54.110;12.138;2022-08-19T04:50:17;101219.84;;;24.10;100.00
16481;BME280;44634;54.110;12.138;2022-08-19T04:52:45;101222.47;;;24.29;100.00
16481;BME280;44634;54.110;12.138;2022-08-19T04:55:14;101236.91;;;24.03;100.00
16481;BME280;44634;54.110;12.138;2022-08-19T04:57:43;101240.78;;;24.21;100.00
16481;BME280;44634;54.110;12.138;2022-08-19T05:00:11;101253.44;;;24.27;100.00
16481;BME280;44634;54.110;12.138;2022-08-19T05:02:39;101252.69;;;24.07;100.00
16481;BME280;44634;54.110;12.138;2022-08-19T05:05:07;101244.25;;;24.41;100.00
16481;BME280;44634;54.110;12.138;2022-08-19T05:07:35;101244.78;;;24.88;100.00
16481;BME280;44634;54.110;12.138;2022-08-19T05:10:04;101242.06;;;24.56;100.00
16481;BME280;44634;54.110;12.138;2022-08-19T05:12:34;101241.53;;;24.48;100.00
16481;BME280;44634;54.110;12.138;2022-08-19T05:15:03;101238.53;;;24.62;100.00
16481;BME280;44634;54.110;12.138;2022-08-19T05:17:32;101243.63;;;24.39;100.00
16481;BME280;44634;54.110;12.138;2022-08-19T05:20:06;101240.41;;;24.62;100.00
16481;BME280;44634;54.110;12.138;2022-08-19T05:22:51;101270.47;;;24.72;100.00
16481;BME280;44634;54.110;12.138;2022-08-19T05:25:21;101262.25;;;24.54;100.00
16481;BME280;44634;54.110;12.138;2022-08-19T05:27:51;101269.88;;;24.70;100.00
16481;BME280;44634;54.110;12.138;2022-08-19T05:30:18;101281.88;;;25.12;100.00
16481;BME280;44634;54.110;12.138;2022-08-19T05:33:06;101284.94;;;24.59;100.00
16481;BME280;44634;54.110;12.138;2022-08-19T05:35:36;101279.75;;;24.51;100.00
16481;BME280;44634;54.110;12.138;2022-08-19T05:38:04;101276.53;;;24.99;100.00
16481;BME280;44634;54.110;12.138;2022-08-19T05:40:34;101279.56;;;24.84;100.00
16481;BME280;44634;54.110;12.138;2022-08-19T05:43:05;101274.88;;;24.98;100.00
16481;BME280;44634;54.110;12.138;2022-08-19T05:45:38;101269.69;;;24.65;100.00
16481;BME280;44634;54.110;12.138;2022-08-19T05:48:06;101273.28;;;24.90;100.00
16481;BME280;44634;54.110;12.138;2022-08-19T05:50:35;101267.66;;;24.92;100.00
16481;BME280;44634;54.110;12.138;2022-08-19T05:53:03;101258.31;;;25.19;100.00
16481;BME280;44634;54.110;12.138;2022-08-19T05:55:31;101267.13;;;25.08;100.00
16481;BME280;44634;54.110;12.138;2022-08-19T05:57:59;101262.84;;;24.62;100.00
16481;BME280;44634;54.110;12.138;2022-08-19T06:00:29;101263.06;;;24.61;100.00
16481;BME280;44634;54.110;12.138;2022-08-19T06:02:57;101260.75;;;24.65;100.00
16481;BME280;44634;54.110;12.138;2022-08-19T06:05:35;101250.69;;;24.47;100.00
16481;BME280;44634;54.110;12.138;2022-08-19T06:08:14;101250.63;;;24.53;100.00
16481;BME280;44634;54.110;12.138;2022-08-19T06:10:44;101248.88;;;24.66;100.00
16481;BME280;44634;54.110;12.138;2022-08-19T06:13:12;101248.84;;;24.72;100.00
16481;BME280;44634;54.110;12.138;2022-08-19T06:15:41;101251.63;;;24.90;100.00
16481;BME280;44634;54.110;12.138;2022-08-19T06:18:10;101245.53;;;24.70;100.00
16481;BME280;44634;54.110;12.138;2022-08-19T06:20:38;101243.34;;;24.85;100.00
16481;BME280;44634;54.110;12.138;2022-08-19T06:23:21;101250.09;;;24.70;100.00
16481;BME280;44634;54.110;12.138;2022-08-19T06:25:50;101241.81;;;24.65;100.00
16481;BME280;44634;54.110;12.138;2022-08-19T06:28:17;101237.19;;;24.40;100.00
16481;BME280;44634;54.110;12.138;2022-08-19T06:30:47;101231.38;;;24.37;100.00
16481;BME280;44634;54.110;12.138;2022-08-19T06:33:15;101238.47;;;24.24;100.00
16481;BME280;44634;54.110;12.138;2022-08-19T06:35:44;101240.38;;;24.30;100.00
16481;BME280;44634;54.110;12.138;2022-08-19T06:38:12;101225.81;;;24.31;100.00
16481;BME280;44634;54.110;12.138;2022-08-19T06:40:40;101215.03;;;24.12;100.00
16481;BME280;44634;54.110;12.138;2022-08-19T06:43:13;101220.38;;;24.25;100.00
16481;BME280;44634;54.110;12.138;2022-08-19T06:45:44;101212.00;;;24.46;100.00
16481;BME280;44634;54.110;12.138;2022-08-19T06:48:14;101215.09;;;24.50;100.00
16481;BME280;44634;54.110;12.138;2022-08-19T06:50:43;101214.78;;;24.65;100.00
16481;BME280;44634;54.110;12.138;2022-08-19T06:53:12;101201.84;;;24.28;100.00
16481;BME280;44634;54.110;12.138;2022-08-19T06:55:40;101196.13;;;24.12;100.00
16481;BME280;44634;54.110;12.138;2022-08-19T06:58:07;101204.63;;;24.22;100.00
16481;BME280;44634;54.110;12.138;2022-08-19T07:00:36;101201.91;;;24.22;100.00
16481;BME280;44634;54.110;12.138;2022-08-19T07:03:04;101206.72;;;24.20;100.00
16481;BME280;44634;54.110;12.138;2022-08-19T07:05:39;101204.56;;;24.35;100.00
16481;BME280;44634;54.110;12.138;2022-08-19T07:08:11;101220.78;;;24.35;100.00
16481;BME280;44634;54.110;12.138;2022-08-19T07:10:43;101227.00;;;24.29;100.00
16481;BME280;44634;54.110;12.138;2022-08-19T07:13:11;101222.09;;;24.13;100.00
16481;BME280;44634;54.110;12.138;2022-08-19T07:15:39;101228.50;;;24.31;100.00
16481;BME280;44634;54.110;12.138;2022-08-19T07:18:06;101230.09;;;24.46;100.00
16481;BME280;44634;54.110;12.138;2022-08-19T07:20:38;101231.75;;;24.47;100.00
16481;BME280;44634;54.110;12.138;2022-08-19T07:23:07;101224.03;;;24.50;100.00
16481;BME280;44634;54.110;12.138;2022-08-19T07:25:44;101232.69;;;24.21;100.00
16481;BME280;44634;54.110;12.138;2022-08-19T07:28:18;101236.13;;;23.83;100.00
16481;BME280;44634;54.110;12.138;2022-08-19T07:30:50;101239.19;;;24.07;100.00
16481;BME280;44634;54.110;12.138;2022-08-19T07:33:18;101235.59;;;24.19;100.00
16481;BME280;44634;54.110;12.138;2022-08-19T07:35:48;101239.34;;;24.63;100.00
16481;BME280;44634;54.110;12.138;2022-08-19T07:38:16;101247.88;;;24.91;100.00
16481;BME280;44634;54.110;12.138;2022-08-19T07:40:44;101244.69;;;24.70;100.00
16481;BME280;44634;54.110;12.138;2022-08-19T07:43:13;101238.97;;;24.84;100.00
16481;BME280;44634;54.110;12.138;2022-08-19T07:45:44;101247.97;;;24.47;100.00
16481;BME280;44634;54.110;12.138;2022-08-19T07:48:13;101238.38;;;24.51;100.00
16481;BME280;44634;54.110;12.138;2022-08-19T07:50:42;101236.94;;;23.97;100.00
16481;BME280;44634;54.110;12.138;2022-08-19T07:53:11;101230.38;;;24.31;100.00
16481;BME280;44634;54.110;12.138;2022-08-19T07:55:39;101257.22;;;24.19;100.00
16481;BME280;44634;54.110;12.138;2022-08-19T07:58:11;101249.50;;;24.29;100.00
16481;BME280;44634;54.110;12.138;2022-08-19T08:00:40;101248.84;;;24.27;100.00
16481;BME280;44634;54.110;12.138;2022-08-19T08:03:08;101261.38;;;24.15;100.00
16481;BME280;44634;54.110;12.138;2022-08-19T08:05:36;101269.50;;;24.09;100.00
16481;BME280;44634;54.110;12.138;2022-08-19T08:08:23;101268.84;;;24.20;100.00
16481;BME280;44634;54.110;12.138;2022-08-19T08:11:15;101266.47;;;23.92;100.00
16481;BME280;44634;54.110;12.138;2022-08-19T08:13:46;101269.69;;;24.14;100.00
16481;BME280;44634;54.110;12.138;2022-08-19T08:16:30;101267.28;;;23.86;100.00
16481;BME280;44634;54.110;12.138;2022-08-19T08:19:00;101270.13;;;24.17;100.00
16481;BME280;44634;54.110;12.138;2022-08-19T08:21:33;101265.28;;;24.26;100.00
16481;BME280;44634;54.110;12.138;2022-08-19T08:24:03;101274.56;;;23.92;100.00
16481;BME280;44634;54.110;12.138;2022-08-19T08:26:30;101278.00;;;24.19;100.00
16481;BME280;44634;54.110;12.138;2022-08-19T08:29:00;101281.81;;;23.98;100.00
16481;BME280;44634;54.110;12.138;2022-08-19T08:31:38;101283.13;;;23.76;100.00
16481;BME280;44634;54.110;12.138;2022-08-19T08:34:07;101287.59;;;24.08;100.00
16481;BME280;44634;54.110;12.138;2022-08-19T08:36:36;101283.88;;;23.96;100.00
16481;BME280;44634;54.110;12.138;2022-08-19T08:39:10;101296.56;;;23.95;100.00
16481;BME280;44634;54.110;12.138;2022-08-19T08:41:45;101293.00;;;24.08;100.00
16481;BME280;44634;54.110;12.138;2022-08-19T08:44:17;101290.16;;;23.83;100.00
16481;BME280;44634;54.110;12.138;2022-08-19T08:46:50;101284.75;;;23.83;100.00
16481;BME280;44634;54.110;12.138;2022-08-19T08:49:33;101292.63;;;23.91;100.00
16481;BME280;44634;54.110;12.138;2022-08-19T08:52:05;101304.50;;;23.90;100.00
16481;BME280;44634;54.110;12.138;2022-08-19T08:54:39;101298.84;;;24.05;100.00
16481;BME280;44634;54.110;12.138;2022-08-19T08:57:25;101304.03;;;24.00;100.00
16481;BME280;44634;54.110;12.138;2022-08-19T09:00:09;101297.66;;;23.74;100.00
16481;BME280;44634;54.110;12.138;2022-08-19T09:02:41;101295.91;;;24.00;100.00
16481;BME280;44634;54.110;12.138;2022-08-19T09:05:10;101295.00;;;24.26;100.00
16481;BME280;44634;54.110;12.138;2022-08-19T09:07:45;101301.06;;;24.15;100.00
16481;BME280;44634;54.110;12.138;2022-08-19T09:10:21;101301.47;;;24.31;100.00
16481;BME280;44634;54.110;12.138;2022-08-19T09:13:11;101310.22;;;24.14;100.00
16481;BME280;44634;54.110;12.138;2022-08-19T09:15:44;101301.91;;;24.22;100.00
16481;BME280;44634;54.110;12.138;2022-08-19T09:18:14;101296.69;;;24.33;100.00
16481;BME280;44634;54.110;12.138;2022-08-19T09:20:45;101306.94;;;24.05;100.00
16481;BME280;44634;54.110;12.138;2022-08-19T09:23:14;101290.34;;;23.95;100.00
16481;BME280;44634;54.110;12.138;2022-08-19T09:25:44;101296.13;;;24.05;100.00
16481;BME280;44634;54.110;12.138;2022-08-19T09:28:11;101308.78;;;24.11;100.00
16481;BME280;44634;54.110;12.138;2022-08-19T09:30:48;101292.34;;;24.32;100.00
16481;BME280;44634;54.110;12.138;2022-08-19T09:33:18;101309.94;;;24.42;100.00
16481;BME280;44634;54.110;12.138;2022-08-19T09:35:46;101314.91;;;24.45;100.00
16481;BME280;44634;54.110;12.138;2022-08-19T09:38:19;101317.22;;;24.41;100.00
16481;BME280;44634;54.110;12.138;2022-08-19T09:40:49;101307.38;;;24.02;100.00
16481;BME280;44634;54.110;12.138;2022-08-19T09:43:17;101307.91;;;24.24;100.00
16481;BME280;44634;54.110;12.138;2022-08-19T09:45:59;101310.66;;;24.11;100.00
16481;BME280;44634;54.110;12.138;2022-08-19T09:48:27;101317.50;;;24.20;100.00
16481;BME280;44634;54.110;12.138;2022-08-19T09:51:02;101334.50;;;24.40;100.00
16481;BME280;44634;54.110;12.138;2022-08-19T09:53:30;101331.44;;;24.17;100.00
16481;BME280;44634;54.110;12.138;2022-08-19T09:56:01;101324.78;;;24.19;100.00
16481;BME280;44634;54.110;12.138;2022-08-19T09:58:29;101319.16;;;24.21;100.00
16481;BME280;44634;54.110;12.138;2022-08-19T10:00:59;101331.34;;;24.43;100.00
16481;BME280;44634;54.110;12.138;2022-08-19T10:03:28;101328.84;;;24.86;100.00
16481;BME280;44634;54.110;12.138;2022-08-19T10:05:58;101353.97;;;24.62;100.00
16481;BME280;44634;54.110;12.138;2022-08-19T10:08:28;101356.09;;;24.91;100.00
16481;BME280;44634;54.110;12.138;2022-08-19T10:10:57;101366.13;;;24.20;100.00
16481;BME280;44634;54.110;12.138;2022-08-19T10:13:47;101363.25;;;24.08;100.00
16481;BME280;44634;54.110;12.138;2022-08-19T10:16:21;101343.66;;;24.39;100.00
16481;BME280;44634;54.110;12.138;2022-08-19T10:18:54;101358.38;;;24.43;100.00
16481;BME280;44634;54.110;12.138;2022-08-19T10:21:27;101359.94;;;24.71;100.00
16481;BME280;44634;54.110;12.138;2022-08-19T10:24:00;101360.59;;;24.66;100.00
16481;BME280;44634;54.110;12.138;2022-08-19T10:26:29;101360.16;;;24.69;100.00
16481;BME280;44634;54.110;12.138;2022-08-19T10:28:59;101356.44;;;24.63;100.00
16481;BME280;44634;54.110;12.138;2022-08-19T10:31:29;101347.00;;;24.79;100.00
16481;BME280;44634;54.110;12.138;2022-08-19T10:34:18;101363.78;;;24.50;100.00
16481;BME280;44634;54.110;12.138;2022-08-19T10:36:54;101344.91;;;24.23;100.00
16481;BME280;44634;54.110;12.138;2022-08-19T10:39:27;101349.66;;;24.41;100.00
16481;BME280;44634;54.110;12.138;2022-08-19T10:41:58;101364.84;;;24.42;100.00
16481;BME280;44634;54.110;12.138;2022-08-19T10:44:27;101367.28;;;24.57;100.00
16481;BME280;44634;54.110;12.138;2022-08-19T10:46:58;101372.91;;;24.55;100.00
16481;BME280;44634;54.110;12.138;2022-08-19T10:49:27;101371.69;;;24.45;100.00
16481;BME280;44634;54.110;12.138;2022-08-19T10:51:55;101376.31;;;24.89;100.00
16481;BME280;44634;54.110;12.138;2022-08-19T10:54:46;101378.13;;;24.44;100.00
16481;BME280;44634;54.110;12.138;2022-08-19T10:57:34;101374.03;;;24.35;100.00
16481;BME280;44634;54.110;12.138;2022-08-19T11:00:24;101369.63;;;24.40;100.00
16481;BME280;44634;54.110;12.138;2022-08-19T11:02:52;101378.03;;;24.77;100.00
16481;BME280;44634;54.110;12.138;2022-08-19T11:05:20;101383.16;;;24.85;100.00
16481;BME280;44634;54.110;12.138;2022-08-19T11:07:50;101388.91;;;24.63;100.00
16481;BME280;44634;54.110;12.138;2022-08-19T11:10:19;101377.47;;;24.55;100.00
16481;BME280;44634;54.110;12.138;2022-08-19T11:12:48;101368.91;;;24.65;100.00
16481;BME280;44634;54.110;12.138;2022-08-19T11:15:21;101373.59;;;24.24;100.00
16481;BME280;44634;54.110;12.138;2022-08-19T11:17:52;101361.84;;;24.63;100.00
16481;BME280;44634;54.110;12.138;2022-08-19T11:20:21;101367.31;;;24.44;100.00
16481;BME280;44634;54.110;12.138;2022-08-19T11:22:51;101366.66;;;24.55;100.00
16481;BME280;44634;54.110;12.138;2022-08-19T11:25:20;101389.66;;;24.06;100.00
16481;BME280;44634;54.110;12.138;2022-08-19T11:27:48;101380.91;;;24.30;100.00
16481;BME280;44634;54.110;12.138;2022-08-19T11:30:17;101385.84;;;24.27;100.00
16481;BME280;44634;54.110;12.138;2022-08-19T11:32:45;101395.88;;;24.07;100.00
16481;BME280;44634;54.110;12.138;2022-08-19T11:35:16;101386.94;;;24.19;100.00
16481;BME280;44634;54.110;12.138;2022-08-19T11:37:47;101381.06;;;24.42;100.00
16481;BME280;44634;54.110;12.138;2022-08-19T11:40:15;101391.88;;;24.42;100.00
16481;BME280;44634;54.110;12.138;2022-08-19T11:42:43;101382.94;;;24.48;100.00
16481;BME280;44634;54.110;12.138;2022-08-19T11:45:24;101382.16;;;24.08;100.00
16481;BME280;44634;54.110;12.138;2022-08-19T11:47:52;101384.63;;;24.36;100.00
16481;BME280;44634;54.110;12.138;2022-08-19T11:50:22;101395.63;;;24.28;100.00
16481;BME280;44634;54.110;12.138;2022-08-19T11:52:54;101394.78;;;24.47;100.00
16481;BME280;44634;54.110;12.138;2022-08-19T11:55:22;101400.41;;;24.39;100.00
16481;BME280;44634;54.110;12.138;2022-08-19T11:57:49;101384.63;;;24.36;100.00
16481;BME280;44634;54.110;12.138;2022-08-19T12:00:18;101394.16;;;24.45;100.00
16481;BME280;44634;54.110;12.138;2022-08-19T12:02:45;101372.75;;;24.37;100.00
16481;BME280;44634;54.110;12.138;2022-08-19T12:05:13;101378.00;;;24.32;100.00
16481;BME280;44634;54.110;12.138;2022-08-19T12:07:42;101367.75;;;24.27;100.00
16481;BME280;44634;54.110;12.138;2022-08-19T12:10:10;101372.59;;;24.06;100.00
16481;BME280;44634;54.110;12.138;2022-08-19T12:12:38;101360.47;;;24.28;100.00
16481;BME280;44634;54.110;12.138;2022-08-19T12:15:09;101375.03;;;24.40;100.00
16481;BME280;44634;54.110;12.138;2022-08-19T12:17:38;101378.84;;;23.93;100.00
16481;BME280;44634;54.110;12.138;2022-08-19T12:20:08;101363.47;;;23.87;100.00
16481;BME280;44634;54.110;12.138;2022-08-19T12:22:37;101335.16;;;24.16;100.00
16481;BME280;44634;54.110;12.138;2022-08-19T12:25:07;101352.41;;;24.15;100.00
16481;BME280;44634;54.110;12.138;2022-08-19T12:27:35;101353.41;;;24.47;100.00
16481;BME280;44634;54.110;12.138;2022-08-19T12:30:10;101372.84;;;23.91;100.00
16481;BME280;44634;54.110;12.138;2022-08-19T12:32:38;101363.88;;;24.17;100.00
16481;BME280;44634;54.110;12.138;2022-08-19T12:35:07;101356.38;;;24.12;100.00
16481;BME280;44634;54.110;12.138;2022-08-19T12:37:36;101375.91;;;24.01;100.00
16481;BME280;44634;54.110;12.138;2022-08-19T12:40:04;101380.47;;;24.33;100.00
16481;BME280;44634;54.110;12.138;2022-08-19T12:42:34;101380.50;;;24.07;100.00
16481;BME280;44634;54.110;12.138;2022-08-19T12:45:02;101402.94;;;24.21;100.00
16481;BME280;44634;54.110;12.138;2022-08-19T12:47:33;101396.69;;;24.20;100.00
16481;BME280;44634;54.110;12.138;2022-08-19T12:50:06;101373.22;;;24.08;100.00